createdAt,value
2023-03-05T00:00:59.273Z,20.89
2023-03-05T00:01:59.277Z,20.87
2023-03-05T00:02:59.377Z,20.84
2023-03-05T00:03:59.469Z,20.83
2023-03-05T00:04:59.469Z,20.83
2023-03-05T00:05:59.496Z,20.79
2023-03-05T00:06:59.562Z,20.80
2023-03-05T00:07:59.621Z,20.81
2023-03-05T00:08:59.714Z,20.79
2023-03-05T00:09:59.729Z,20.77
2023-03-05T00:10:59.810Z,20.78
2023-03-05T00:11:59.877Z,20.77
2023-03-05T00:12:59.974Z,20.80
2023-03-05T00:14:00.031Z,20.76
2023-03-05T00:15:00.042Z,20.78
2023-03-05T00:16:00.180Z,20.76
2023-03-05T00:17:00.153Z,20.76
2023-03-05T00:18:00.191Z,20.77
2023-03-05T00:19:00.290Z,20.77
2023-03-05T00:20:02.255Z,20.74
2023-03-05T00:21:00.374Z,20.73
2023-03-05T00:22:00.435Z,20.72
2023-03-05T00:23:00.501Z,20.71
2023-03-05T00:24:00.562Z,20.74
2023-03-05T00:29:00.900Z,20.71
2023-03-05T00:30:00.942Z,20.70
2023-03-05T00:31:01.085Z,20.72
2023-03-05T00:32:01.146Z,20.70
2023-03-05T00:33:01.139Z,20.70
2023-03-05T00:34:01.254Z,20.70
2023-03-05T00:35:01.282Z,20.66
2023-03-05T00:36:01.400Z,20.68
2023-03-05T00:37:01.424Z,20.67
2023-03-05T00:38:01.488Z,20.65
2023-03-05T00:39:01.580Z,20.63
2023-03-05T00:40:01.691Z,20.63
2023-03-05T00:41:01.662Z,20.63
2023-03-05T00:42:01.732Z,20.63
2023-03-05T00:43:01.786Z,20.64
2023-03-05T00:44:02.566Z,20.63
2023-03-05T00:45:01.938Z,20.63
2023-03-05T00:46:01.971Z,20.63
2023-03-05T00:47:02.023Z,20.63
2023-03-05T00:48:02.112Z,20.66
2023-03-05T00:49:02.168Z,20.66
2023-03-05T00:50:02.237Z,20.64
2023-03-05T00:51:02.257Z,20.64
2023-03-05T00:52:02.344Z,20.64
2023-03-05T00:53:02.385Z,20.67
2023-03-05T00:54:02.469Z,20.65
2023-03-05T00:55:02.548Z,20.63
2023-03-05T00:56:02.544Z,20.64
2023-03-05T00:57:02.629Z,20.63
2023-03-05T00:58:02.681Z,20.63
2023-03-05T00:59:02.742Z,20.62
2023-03-05T01:00:02.814Z,20.65
2023-03-05T01:01:03.002Z,20.64
2023-03-05T01:02:02.957Z,20.65
2023-03-05T01:03:03.002Z,20.64
2023-03-05T01:04:03.047Z,20.66
2023-03-05T01:05:03.161Z,20.65
2023-03-05T01:06:03.210Z,20.61
2023-03-05T01:07:03.229Z,20.65
2023-03-05T01:08:03.310Z,20.64
2023-03-05T01:09:03.376Z,20.65
2023-03-05T01:10:03.429Z,20.64
2023-03-05T01:11:03.455Z,20.66
2023-03-05T01:12:03.515Z,20.66
2023-03-05T01:13:03.582Z,20.65
2023-03-05T01:14:03.642Z,20.65
2023-03-05T01:15:03.682Z,20.66
2023-03-05T01:16:03.753Z,20.68
2023-03-05T01:17:03.801Z,20.64
2023-03-05T01:18:03.867Z,20.66
2023-03-05T01:19:03.928Z,20.66
2023-03-05T01:20:03.964Z,20.66
2023-03-05T01:21:04.013Z,20.68
2023-03-05T01:22:04.087Z,20.65
2023-03-05T01:23:04.152Z,20.66
2023-03-05T01:24:04.232Z,20.68
2023-03-05T01:25:04.292Z,20.68
2023-03-05T01:26:04.332Z,20.70
2023-03-05T01:27:04.396Z,20.69
2023-03-05T01:28:04.455Z,20.70
2023-03-05T01:29:04.527Z,20.67
2023-03-05T01:30:04.579Z,20.65
2023-03-05T01:31:04.719Z,20.67
2023-03-05T01:32:04.738Z,20.64
2023-03-05T01:33:04.775Z,20.66
2023-03-05T01:34:04.860Z,20.68
2023-03-05T01:35:04.920Z,20.66
2023-03-05T01:36:04.977Z,20.66
2023-03-05T01:37:05.013Z,20.65
2023-03-05T01:38:05.089Z,20.63
2023-03-05T01:39:05.114Z,20.63
2023-03-05T01:40:05.250Z,20.62
2023-03-05T01:41:05.261Z,20.64
2023-03-05T01:42:05.334Z,20.62
2023-03-05T01:43:05.348Z,20.60
2023-03-05T01:44:05.429Z,20.63
2023-03-05T01:45:05.484Z,20.61
2023-03-05T01:46:05.598Z,20.62
2023-03-05T01:47:05.595Z,20.62
2023-03-05T01:48:05.682Z,20.64
2023-03-05T01:49:05.722Z,20.62
2023-03-05T01:50:05.800Z,20.65
2023-03-05T01:51:05.837Z,20.64
2023-03-05T01:52:05.965Z,20.65
2023-03-05T01:53:05.998Z,20.64
2023-03-05T01:54:06.069Z,20.66
2023-03-05T01:55:06.128Z,20.69
2023-03-05T01:56:06.189Z,20.69
2023-03-05T01:57:06.220Z,20.68
2023-03-05T01:58:06.295Z,20.68
2023-03-05T01:59:06.346Z,20.68
2023-03-05T02:00:06.388Z,20.71
2023-03-05T02:01:06.508Z,20.71
2023-03-05T02:02:06.548Z,20.71
2023-03-05T02:03:06.563Z,20.72
2023-03-05T02:04:06.644Z,20.70
2023-03-05T02:05:06.672Z,20.69
2023-03-05T02:06:06.761Z,20.72
2023-03-05T02:07:06.791Z,20.72
2023-03-05T02:08:06.858Z,20.70
2023-03-05T02:09:06.901Z,20.68
2023-03-05T02:10:06.922Z,20.70
2023-03-05T02:11:06.998Z,20.68
2023-03-05T02:12:07.017Z,20.68
2023-03-05T02:13:07.042Z,20.71
2023-03-05T02:14:09.865Z,20.70
2023-03-05T02:15:07.084Z,20.66
2023-03-05T02:16:07.127Z,20.65
2023-03-05T02:17:07.064Z,20.60
2023-03-05T02:18:07.052Z,20.62
2023-03-05T02:19:07.055Z,20.63
2023-03-05T02:20:07.076Z,20.65
2023-03-05T02:21:07.061Z,20.64
2023-03-05T06:18:16.204Z,20.41
2023-03-05T06:27:16.318Z,20.35
2023-03-05T06:28:16.348Z,20.36
2023-03-05T06:29:16.362Z,20.37
2023-03-05T06:30:16.372Z,20.38
2023-03-05T06:31:16.432Z,20.43
2023-03-05T06:32:16.392Z,20.45
2023-03-05T06:33:16.335Z,20.45
2023-03-05T06:34:16.350Z,20.46
2023-03-05T06:35:16.327Z,20.48
2023-03-05T06:36:16.378Z,20.47
2023-03-05T06:37:16.339Z,20.47
2023-03-05T06:38:16.348Z,20.50
2023-03-05T06:39:16.352Z,20.51
2023-03-05T06:40:16.328Z,20.52
2023-03-05T06:41:16.340Z,20.53
2023-03-05T06:42:16.338Z,20.54
2023-03-05T06:43:16.387Z,20.53
2023-03-05T06:44:16.356Z,20.51
2023-03-05T06:45:16.345Z,20.52
2023-03-05T06:46:16.432Z,20.50
2023-03-05T06:47:16.371Z,20.49
2023-03-05T07:17:16.339Z,20.39
2023-03-05T07:18:16.385Z,20.38
2023-03-05T07:19:16.428Z,20.38
2023-03-05T07:20:16.459Z,20.37
2023-03-05T07:21:16.467Z,20.36
2023-03-05T07:22:16.531Z,20.38
2023-03-05T07:23:16.562Z,20.37
2023-03-05T07:27:16.716Z,20.37
2023-03-05T07:40:17.376Z,20.28
2023-03-05T07:41:17.438Z,20.26
2023-03-05T07:42:17.539Z,20.26
2023-03-05T07:43:17.596Z,20.26
2023-03-05T07:44:17.644Z,20.28
2023-03-05T07:45:17.675Z,20.29
2023-03-05T07:46:17.790Z,20.32
2023-03-05T07:47:17.791Z,20.34
2023-03-05T07:50:17.882Z,20.37
2023-03-05T07:51:17.901Z,20.36
2023-03-05T07:52:17.836Z,20.36
2023-03-05T07:53:17.864Z,20.37
2023-03-05T07:54:17.897Z,20.34
2023-03-05T07:55:17.883Z,20.35
2023-03-05T07:56:17.941Z,20.36
2023-03-05T07:57:17.951Z,20.33
2023-03-05T07:58:17.993Z,20.34
2023-03-05T07:59:18.012Z,20.33
2023-03-05T08:00:18.035Z,20.36
2023-03-05T08:01:18.080Z,20.34
2023-03-05T08:02:18.121Z,20.33
2023-03-05T08:03:18.119Z,20.32
2023-03-05T08:04:18.201Z,20.32
2023-03-05T08:05:18.252Z,20.29
2023-03-05T08:06:18.323Z,20.28
2023-03-05T08:07:18.354Z,20.28
2023-03-05T08:08:18.446Z,20.26
2023-03-05T08:09:18.515Z,20.28
2023-03-05T08:10:18.569Z,20.25
2023-03-05T08:11:18.629Z,20.26
2023-03-05T08:12:18.689Z,20.25
2023-03-05T08:13:18.773Z,20.28
2023-03-05T08:14:18.786Z,20.33
2023-03-05T08:15:18.806Z,20.37
2023-03-05T08:16:18.924Z,20.40
2023-03-05T08:17:18.803Z,20.44
2023-03-05T08:18:18.827Z,20.46
2023-03-05T08:19:18.822Z,20.47
2023-03-05T08:20:18.806Z,20.51
2023-03-05T08:21:18.786Z,20.50
2023-03-05T08:22:18.812Z,20.49
2023-03-05T08:23:18.810Z,20.50
2023-03-05T08:24:18.817Z,20.48
2023-03-05T08:25:18.781Z,20.52
2023-03-05T08:26:18.792Z,20.54
2023-03-05T08:27:18.793Z,20.51
2023-03-05T08:28:18.815Z,20.51
2023-03-05T08:29:18.790Z,20.48
2023-03-05T08:30:18.792Z,20.48
2023-03-05T08:31:18.966Z,20.49
2023-03-05T08:32:18.811Z,20.44
2023-03-05T08:33:18.779Z,20.44
2023-03-05T08:34:18.778Z,20.42
2023-03-05T08:35:18.928Z,20.40
2023-03-05T08:36:18.823Z,20.39
2023-03-05T08:37:18.866Z,20.36
2023-03-05T08:38:21.067Z,20.35
2023-03-05T08:39:18.957Z,20.35
2023-03-05T08:40:18.968Z,20.32
2023-03-05T08:41:19.049Z,20.30
2023-03-05T08:42:19.118Z,20.30
2023-03-05T08:43:19.180Z,20.29
2023-03-05T08:44:19.198Z,20.29
2023-03-05T08:45:19.279Z,20.29
2023-03-05T08:46:19.369Z,20.31
2023-03-05T08:47:19.432Z,20.32
2023-03-05T08:48:19.452Z,20.34
2023-03-05T08:49:19.502Z,20.38
2023-03-05T08:50:19.558Z,20.40
2023-03-05T08:51:19.589Z,20.41
2023-03-05T08:52:19.582Z,20.45
2023-03-05T08:53:19.627Z,20.44
2023-03-05T08:54:19.629Z,20.44
2023-03-05T08:55:19.697Z,20.49
2023-03-05T08:56:19.685Z,20.47
2023-03-05T08:57:19.715Z,20.49
2023-03-05T08:58:19.730Z,20.48
2023-03-05T08:59:19.761Z,20.47
2023-03-05T09:00:19.844Z,20.47
2023-03-05T09:01:19.935Z,20.44
2023-03-05T09:02:19.901Z,20.43
2023-03-05T09:03:19.923Z,20.44
2023-03-05T09:04:19.946Z,20.43
2023-03-05T09:05:19.988Z,20.43
2023-03-05T09:06:20.030Z,20.44
2023-03-05T09:07:20.053Z,20.42
2023-03-05T09:08:20.092Z,20.43
2023-03-05T09:09:20.185Z,20.44
2023-03-05T09:10:20.201Z,20.44
2023-03-05T09:11:20.269Z,20.42
2023-03-05T09:12:20.329Z,20.46
2023-03-05T09:13:20.350Z,20.47
2023-03-05T09:14:20.374Z,20.48
2023-03-05T09:15:20.421Z,20.48
2023-03-05T09:16:20.565Z,20.47
2023-03-05T09:17:20.518Z,20.47
2023-03-05T09:18:20.579Z,20.44
2023-03-05T09:19:20.638Z,20.41
2023-03-05T09:20:20.679Z,20.39
2023-03-05T09:21:20.712Z,20.37
2023-03-05T09:22:20.815Z,20.35
2023-03-05T09:23:20.864Z,20.34
2023-03-05T09:24:20.925Z,20.30
2023-03-05T09:25:21.010Z,20.30
2023-03-05T09:26:21.075Z,20.27
2023-03-05T09:27:21.129Z,20.28
2023-03-05T09:28:21.197Z,20.27
2023-03-05T09:29:21.258Z,20.26
2023-03-05T09:30:21.296Z,20.26
2023-03-05T09:31:21.375Z,20.26
2023-03-05T09:32:21.427Z,20.26
2023-03-05T09:33:21.460Z,20.27
2023-03-05T09:34:21.492Z,20.26
2023-03-05T09:35:21.604Z,20.24
2023-03-05T09:36:21.627Z,20.25
2023-03-05T09:37:21.665Z,20.24
2023-03-05T09:38:21.724Z,20.22
2023-03-05T09:39:21.757Z,20.21
2023-03-05T09:40:21.819Z,20.19
2023-03-05T09:41:21.847Z,20.19
2023-03-05T09:42:21.922Z,20.15
2023-03-05T09:43:21.959Z,20.18
2023-03-05T09:44:22.008Z,20.19
2023-03-05T09:45:22.060Z,20.16
2023-03-05T09:46:22.090Z,20.15
2023-03-05T09:47:22.133Z,20.17
2023-03-05T09:48:22.175Z,20.15
2023-03-05T09:49:22.179Z,20.13
2023-03-05T09:50:22.227Z,20.17
2023-03-05T09:51:22.285Z,20.14
2023-03-05T09:52:22.279Z,20.14
2023-03-05T09:53:22.345Z,20.15
2023-03-05T09:54:22.348Z,20.15
2023-03-05T09:55:22.369Z,20.13
2023-03-05T09:56:22.401Z,20.13
2023-03-05T09:57:22.419Z,20.13
2023-03-05T09:58:22.464Z,20.13
2023-03-05T09:59:22.495Z,20.13
2023-03-05T10:00:22.498Z,20.15
2023-03-05T10:01:22.541Z,20.13
2023-03-05T10:02:22.596Z,20.15
2023-03-05T10:03:22.719Z,20.13
2023-03-05T10:04:22.702Z,20.13
2023-03-05T10:05:22.742Z,20.15
2023-03-05T10:06:22.748Z,20.15
2023-03-05T10:07:22.733Z,20.19
2023-03-05T10:08:23.244Z,20.19
2023-03-05T10:09:22.774Z,20.18
2023-03-05T10:10:22.837Z,20.17
2023-03-05T10:11:22.837Z,20.14
2023-03-05T10:12:22.889Z,20.15
2023-03-05T10:13:22.890Z,20.12
2023-03-05T10:14:22.918Z,20.13
2023-03-05T10:15:22.959Z,20.12
2023-03-05T10:16:23.009Z,20.14
2023-03-05T10:17:23.006Z,20.16
2023-03-05T10:18:23.070Z,20.16
2023-03-05T10:19:23.099Z,20.15
2023-03-05T10:20:23.108Z,20.11
2023-03-05T10:21:23.162Z,20.10
2023-03-05T10:22:23.206Z,20.12
2023-03-05T10:23:23.210Z,20.11
2023-03-05T10:24:23.242Z,20.10
2023-03-05T10:25:23.295Z,20.09
2023-03-05T10:26:23.334Z,20.07
2023-03-05T10:27:23.371Z,20.06
2023-03-05T10:28:23.373Z,20.06
2023-03-05T10:29:23.401Z,20.05
2023-03-05T10:30:23.424Z,19.99
2023-03-05T10:31:23.497Z,20.00
2023-03-05T10:32:23.505Z,20.01
2023-03-05T10:33:23.531Z,19.97
2023-03-05T10:34:23.562Z,19.93
2023-03-05T10:35:23.628Z,19.95
2023-03-05T10:36:23.622Z,19.96
2023-03-05T10:37:23.633Z,19.93
2023-03-05T10:38:23.661Z,19.92
2023-03-05T10:39:23.724Z,19.90
2023-03-05T10:40:23.740Z,19.90
2023-03-05T10:41:23.793Z,19.83
2023-03-05T10:42:23.827Z,19.80
2023-03-05T10:43:23.885Z,19.76
2023-03-05T10:44:23.901Z,19.74
2023-03-05T10:45:23.944Z,19.69
2023-03-05T10:46:23.967Z,19.69
2023-03-05T10:47:24.016Z,19.66
2023-03-05T10:48:24.023Z,19.64
2023-03-05T10:49:24.044Z,19.66
2023-03-05T10:50:24.103Z,19.63
2023-03-05T10:51:24.136Z,19.59
2023-03-05T10:52:24.163Z,19.57
2023-03-05T10:53:24.148Z,19.52
2023-03-05T10:54:24.217Z,19.53
2023-03-05T10:55:24.212Z,19.54
2023-03-05T10:56:24.226Z,19.53
2023-03-05T10:57:24.269Z,19.52
2023-03-05T10:58:24.773Z,19.48
2023-03-05T10:59:24.312Z,19.45
2023-03-05T11:00:24.336Z,19.43
2023-03-05T11:01:24.432Z,19.33
2023-03-05T11:02:24.399Z,19.31
2023-03-05T11:03:24.439Z,19.26
2023-03-05T11:04:24.437Z,19.24
2023-03-05T11:05:24.463Z,19.22
2023-03-05T11:06:24.519Z,19.22
2023-03-05T11:07:24.513Z,19.20
2023-03-05T11:08:24.537Z,19.09
2023-03-05T11:09:24.538Z,19.09
2023-03-05T11:10:24.584Z,19.12
2023-03-05T11:11:24.597Z,19.13
2023-03-05T11:12:24.612Z,19.15
2023-03-05T11:13:24.628Z,19.09
2023-03-05T11:14:24.667Z,19.07
2023-03-05T11:15:24.696Z,19.11
2023-03-05T11:16:24.786Z,19.10
2023-03-05T11:17:24.742Z,19.08
2023-03-05T11:18:24.773Z,19.09
2023-03-05T11:19:24.766Z,19.07
2023-03-05T11:20:24.801Z,19.06
2023-03-05T11:21:24.823Z,19.06
2023-03-05T11:22:24.830Z,19.10
2023-03-05T11:23:24.886Z,19.12
2023-03-05T11:24:24.905Z,19.12
2023-03-05T11:25:24.897Z,19.13
2023-03-05T11:26:24.938Z,19.08
2023-03-05T11:27:24.974Z,19.09
2023-03-05T11:28:33.018Z,19.05
2023-03-05T11:29:25.957Z,19.01
2023-03-05T11:30:24.981Z,19.00
2023-03-05T11:31:24.997Z,19.00
2023-03-05T11:32:24.996Z,19.00
2023-03-05T11:33:24.960Z,18.98
2023-03-05T11:34:24.954Z,18.95
2023-03-05T11:35:24.931Z,18.99
2023-03-05T11:36:24.898Z,19.02
2023-03-05T11:37:24.881Z,19.04
2023-03-05T11:38:24.978Z,19.05
2023-03-05T11:39:24.899Z,19.00
2023-03-05T11:40:24.845Z,19.06
2023-03-05T11:41:24.900Z,19.04
2023-03-05T11:42:24.870Z,19.01
2023-03-05T11:43:24.839Z,19.01
2023-03-05T11:44:24.893Z,19.00
2023-03-05T11:45:24.866Z,18.95
2023-03-05T11:46:24.876Z,18.96
2023-03-05T11:47:24.890Z,18.98
2023-03-05T11:48:24.865Z,18.99
2023-03-05T11:49:24.878Z,18.99
2023-03-05T11:50:24.891Z,18.98
2023-03-05T11:51:24.957Z,19.02
2023-03-05T11:52:24.973Z,19.01
2023-03-05T11:53:24.995Z,19.00
2023-03-05T11:54:25.010Z,19.01
2023-03-05T11:55:25.022Z,19.01
2023-03-05T11:56:25.099Z,18.94
2023-03-05T11:57:25.124Z,18.94
2023-03-05T11:58:25.150Z,18.92
2023-03-05T11:59:25.171Z,18.90
2023-03-05T12:00:25.177Z,18.87
2023-03-05T12:01:25.194Z,18.94
2023-03-05T12:02:25.245Z,18.91
2023-03-05T12:16:25.665Z,18.83
2023-03-05T12:17:25.666Z,18.87
2023-03-05T12:18:25.662Z,18.90
2023-03-05T12:19:25.687Z,18.86
2023-03-05T12:20:25.746Z,18.82
2023-03-05T12:21:25.729Z,18.87
2023-03-05T12:22:25.746Z,18.85
2023-03-05T12:23:25.774Z,18.86
2023-03-05T12:24:28.212Z,18.85
2023-03-05T12:25:25.817Z,18.85
2023-03-05T12:26:25.791Z,18.83
2023-03-05T12:27:25.757Z,18.85
2023-03-05T12:28:25.778Z,18.89
2023-03-05T12:29:25.743Z,18.82
2023-03-05T12:30:25.764Z,18.86
2023-03-05T12:31:25.770Z,18.88
2023-03-05T12:32:25.784Z,18.93
2023-03-05T12:33:25.731Z,18.88
2023-03-05T12:34:25.704Z,18.86
2023-03-05T12:35:25.747Z,18.83
2023-03-05T12:36:25.699Z,18.82
2023-03-05T12:37:25.696Z,18.76
2023-03-05T12:38:26.970Z,18.80
2023-03-05T12:39:25.667Z,18.78
2023-03-05T12:40:25.680Z,18.76
2023-03-05T12:41:28.013Z,18.78
2023-03-05T12:42:25.754Z,18.76
2023-03-05T12:43:25.804Z,18.74
2023-03-05T12:44:25.807Z,18.75
2023-03-05T12:45:25.827Z,18.72
2023-03-05T12:46:25.897Z,18.73
2023-03-05T12:47:25.907Z,18.76
2023-03-05T12:48:25.930Z,18.78
2023-03-05T12:49:25.936Z,18.81
2023-03-05T12:50:25.990Z,18.74
2023-03-05T12:54:26.171Z,18.76
2023-03-05T12:55:26.148Z,18.77
2023-03-05T12:56:26.198Z,18.77
2023-03-05T12:57:26.278Z,18.76
2023-03-05T12:58:26.282Z,18.81
2023-03-05T12:59:26.336Z,18.81
2023-03-05T13:00:26.394Z,18.83
2023-03-05T13:01:26.422Z,18.74
2023-03-05T13:02:26.486Z,18.79
2023-03-05T13:03:26.533Z,18.79
2023-03-05T13:04:26.554Z,18.79
2023-03-05T13:05:26.604Z,18.78
2023-03-05T13:06:26.660Z,18.79
2023-03-05T13:07:26.710Z,18.78
2023-03-05T13:30:27.867Z,18.68
2023-03-05T13:31:27.924Z,18.72
2023-03-05T13:32:27.988Z,18.70
2023-03-05T13:33:27.994Z,18.72
2023-03-05T13:34:37.477Z,18.74
2023-03-05T13:35:29.130Z,18.66
2023-03-05T13:36:28.024Z,18.68
2023-03-05T13:37:28.046Z,18.72
2023-03-05T13:38:28.064Z,18.67
2023-03-05T13:39:27.986Z,18.71
2023-03-05T13:40:28.013Z,18.76
2023-03-05T13:41:27.991Z,18.76
2023-03-05T13:42:27.999Z,18.72
2023-03-05T13:43:27.952Z,18.75
2023-03-05T13:44:27.983Z,18.77
2023-03-05T13:45:28.061Z,18.74
2023-03-05T13:46:28.137Z,18.73
2023-03-05T13:47:28.094Z,18.73
2023-03-05T13:48:28.162Z,18.73
2023-03-05T13:49:28.177Z,18.78
2023-03-05T13:50:28.235Z,18.79
2023-03-05T13:51:28.291Z,18.76
2023-03-05T13:52:28.325Z,18.76
2023-03-05T13:53:28.377Z,18.72
2023-03-05T13:54:28.491Z,18.75
2023-03-05T13:55:28.498Z,18.75
2023-03-05T13:56:28.547Z,18.78
2023-03-05T13:57:28.581Z,18.84
2023-03-05T13:58:28.665Z,18.85
2023-03-05T13:59:28.695Z,18.82
2023-03-05T14:00:28.707Z,18.83
2023-03-05T14:01:28.859Z,18.74
2023-03-05T14:02:28.847Z,18.73
2023-03-05T14:03:28.900Z,18.80
2023-03-05T14:04:28.976Z,18.79
2023-03-05T14:05:29.005Z,18.81
2023-03-05T14:06:29.074Z,18.82
2023-03-05T14:07:29.089Z,18.82
2023-03-05T14:08:29.167Z,18.77
2023-03-05T14:09:29.190Z,18.79
2023-03-05T14:10:29.264Z,18.80
2023-03-05T14:11:29.305Z,18.80
2023-03-05T14:12:29.352Z,18.80
2023-03-05T14:13:29.469Z,18.79
2023-03-05T14:14:29.603Z,18.81
2023-03-05T14:15:29.501Z,18.81
2023-03-05T14:16:29.609Z,18.85
2023-03-05T14:17:29.604Z,18.84
2023-03-05T14:18:29.664Z,18.88
2023-03-05T14:19:29.737Z,18.79
2023-03-05T14:20:29.815Z,18.81
2023-03-05T14:21:29.854Z,18.84
2023-03-05T14:22:29.900Z,18.89
2023-03-05T14:23:29.938Z,18.91
2023-03-05T14:24:29.990Z,18.92
2023-03-05T14:25:30.091Z,18.84
2023-03-05T14:26:30.101Z,18.87
2023-03-05T14:27:30.159Z,18.90
2023-03-05T14:28:30.220Z,18.90
2023-03-05T14:29:30.249Z,18.91
2023-03-05T14:30:30.325Z,18.89
2023-03-05T14:31:30.435Z,18.90
2023-03-05T14:32:30.433Z,18.87
2023-03-05T14:33:30.474Z,18.86
2023-03-05T14:34:30.524Z,18.87
2023-03-05T14:35:30.681Z,18.89
2023-03-05T14:36:30.659Z,18.88
2023-03-05T14:37:30.730Z,18.84
2023-03-05T14:38:30.755Z,18.89
2023-03-05T14:39:30.830Z,18.89
2023-03-05T14:40:30.873Z,18.92
2023-03-05T14:41:30.943Z,18.90
2023-03-05T14:42:30.996Z,18.90
2023-03-05T14:43:31.063Z,18.90
2023-03-05T14:44:31.115Z,18.95
2023-03-05T14:45:31.195Z,18.97
2023-03-05T14:46:31.240Z,18.95
2023-03-05T14:47:31.271Z,18.93
2023-03-05T14:48:31.363Z,18.94
2023-03-05T14:49:31.441Z,18.94
2023-03-05T14:50:31.457Z,18.95
2023-03-05T14:51:31.528Z,18.95
2023-03-05T14:52:31.586Z,18.98
2023-03-05T14:53:31.667Z,18.97
2023-03-05T14:54:31.695Z,18.96
2023-03-05T14:55:31.757Z,18.99
2023-03-05T14:56:31.840Z,18.96
2023-03-05T14:57:31.909Z,18.99
2023-03-05T14:58:31.960Z,18.99
2023-03-05T14:59:32.029Z,18.99
2023-03-05T15:00:32.052Z,19.02
2023-03-05T15:01:32.169Z,19.04
2023-03-05T15:02:32.178Z,19.04
2023-03-05T15:03:32.237Z,19.03
2023-03-05T15:04:32.299Z,19.05
2023-03-05T15:05:32.399Z,19.03
2023-03-05T15:06:32.445Z,19.05
2023-03-05T15:07:32.509Z,19.05
2023-03-05T15:08:32.599Z,19.04
2023-03-05T15:09:32.624Z,19.08
2023-03-05T15:10:32.671Z,19.07
2023-03-05T15:11:32.731Z,19.09
2023-03-05T15:12:32.821Z,19.12
2023-03-05T15:13:32.888Z,19.10
2023-03-05T15:14:32.923Z,19.11
2023-03-05T15:15:33.073Z,19.08
2023-03-05T15:16:33.114Z,19.09
2023-03-05T15:17:33.133Z,19.14
2023-03-05T15:18:33.195Z,19.11
2023-03-05T15:19:33.253Z,19.15
2023-03-05T15:20:33.287Z,19.19
2023-03-05T15:21:33.379Z,19.13
2023-03-05T15:22:33.442Z,19.15
2023-03-05T15:23:33.510Z,19.15
2023-03-05T15:24:33.569Z,19.13
2023-03-05T15:25:33.621Z,19.11
2023-03-05T15:26:33.657Z,19.12
2023-03-05T15:27:33.769Z,19.13
2023-03-05T15:28:33.809Z,19.10
2023-03-05T15:29:33.893Z,19.12
2023-03-05T15:30:33.909Z,19.17
2023-03-05T15:31:34.022Z,19.16
2023-03-05T15:32:34.089Z,19.17
2023-03-05T15:33:34.082Z,19.18
2023-03-05T15:34:34.145Z,19.22
2023-03-05T15:35:34.207Z,19.20
2023-03-05T15:36:34.237Z,19.16
2023-03-05T15:37:34.296Z,19.19
2023-03-05T15:38:34.326Z,19.17
2023-03-05T15:39:34.351Z,19.20
2023-03-05T15:40:34.448Z,19.19
2023-03-05T15:41:34.493Z,19.21
2023-03-05T15:42:34.485Z,19.19
2023-03-05T15:43:34.572Z,19.20
2023-03-05T15:44:34.586Z,19.19
2023-03-05T15:45:34.621Z,19.20
2023-03-05T15:46:34.715Z,19.19
2023-03-05T15:47:34.701Z,19.18
2023-03-05T15:48:34.729Z,19.18
2023-03-05T15:49:34.781Z,19.18
2023-03-05T15:50:34.810Z,19.20
2023-03-05T15:51:34.850Z,19.20
2023-03-05T15:52:34.845Z,19.19
2023-03-05T15:53:34.887Z,19.19
2023-03-05T15:54:34.901Z,19.21
2023-03-05T15:55:34.911Z,19.24
2023-03-05T15:56:34.954Z,19.24
2023-03-05T15:57:34.992Z,19.22
2023-03-05T15:58:34.990Z,19.24
2023-03-05T15:59:34.996Z,19.22
2023-03-05T16:00:35.065Z,19.22
2023-03-05T16:01:35.124Z,19.20
2023-03-05T16:02:35.133Z,19.23
2023-03-05T16:03:35.202Z,19.24
2023-03-05T16:04:35.207Z,19.23
2023-03-05T16:05:35.218Z,19.25
2023-03-05T16:06:35.226Z,19.26
2023-03-05T16:07:35.214Z,19.26
2023-03-05T16:08:35.223Z,19.25
2023-03-05T16:09:35.222Z,19.26
2023-03-05T16:10:35.216Z,19.30
2023-03-05T16:11:35.214Z,19.29
2023-03-05T16:12:35.224Z,19.32
2023-03-05T16:13:35.245Z,19.28
2023-03-05T16:14:35.202Z,19.29
2023-03-05T16:15:35.291Z,19.31
2023-03-05T16:16:35.230Z,19.28
2023-03-05T16:17:35.224Z,19.31
2023-03-05T16:18:35.252Z,19.30
2023-03-05T16:19:35.244Z,19.29
2023-03-05T16:20:35.213Z,19.33
2023-03-05T16:21:35.261Z,19.33
2023-03-05T16:22:35.225Z,19.31
2023-03-05T16:23:35.220Z,19.29
2023-03-05T16:24:35.234Z,19.32
2023-03-05T16:25:35.247Z,19.33
2023-03-05T16:26:35.206Z,19.32
2023-03-05T16:27:35.229Z,19.33
2023-03-05T16:28:35.206Z,19.29
2023-03-05T16:29:35.226Z,19.31
2023-03-05T16:30:35.243Z,19.34
2023-03-05T16:31:35.293Z,19.33
2023-03-05T16:32:35.275Z,19.33
2023-03-05T16:33:35.217Z,19.32
2023-03-05T16:34:35.216Z,19.35
2023-03-05T16:35:35.273Z,19.35
2023-03-05T16:36:35.229Z,19.37
2023-03-05T16:37:35.252Z,19.38
2023-03-05T16:38:35.233Z,19.43
2023-03-05T16:39:35.251Z,19.40
2023-03-05T16:41:02.878Z,19.41
2023-03-05T16:41:36.238Z,19.39
2023-03-05T16:42:35.204Z,19.37
2023-03-05T16:43:35.210Z,19.39
2023-03-05T16:44:35.210Z,19.40
2023-03-05T16:45:35.428Z,19.40
2023-03-05T16:46:35.372Z,19.38
2023-03-05T16:47:35.154Z,19.43
2023-03-05T16:48:35.188Z,19.39
2023-03-05T16:49:35.145Z,19.40
2023-03-05T16:50:35.175Z,19.39
2023-03-05T16:51:35.150Z,19.39
2023-03-05T16:52:35.161Z,19.38
2023-03-05T16:53:35.123Z,19.41
2023-03-05T16:54:35.152Z,19.37
2023-03-05T16:55:35.115Z,19.41
2023-03-05T16:56:35.111Z,19.41
2023-03-05T16:57:35.098Z,19.39
2023-03-05T16:58:35.126Z,19.38
2023-03-05T17:00:35.164Z,19.40
2023-03-05T17:01:35.073Z,19.39
2023-03-05T17:02:35.092Z,19.41
2023-03-05T17:03:35.128Z,19.42
2023-03-05T17:04:35.053Z,19.42
2023-03-05T17:13:35.017Z,19.42
2023-03-05T17:14:34.994Z,19.43
2023-03-05T17:19:34.974Z,19.43
2023-03-05T17:20:34.986Z,19.44
2023-03-05T17:21:34.957Z,19.46
2023-03-05T17:22:34.952Z,19.46
2023-03-05T17:23:34.931Z,19.41
2023-03-05T17:24:34.936Z,19.45
2023-03-05T17:25:34.906Z,19.43
2023-03-05T17:26:34.920Z,19.42
2023-03-05T17:27:37.057Z,19.43
2023-03-05T17:28:34.888Z,19.43
2023-03-05T17:36:34.815Z,19.40
2023-03-05T17:37:34.822Z,19.41
2023-03-05T17:38:34.924Z,19.41
2023-03-05T17:39:34.821Z,19.37
2023-03-05T17:40:34.799Z,19.39
2023-03-05T17:41:34.781Z,19.40
2023-03-05T17:42:34.861Z,19.40
2023-03-05T17:43:34.799Z,19.39
2023-03-05T17:44:34.807Z,19.38
2023-03-05T17:45:34.885Z,19.36
2023-03-05T17:46:34.812Z,19.40
2023-03-05T17:47:34.767Z,19.39
2023-03-05T17:48:34.784Z,19.42
2023-03-05T17:49:34.803Z,19.44
2023-03-05T17:50:34.809Z,19.40
2023-03-05T17:51:34.851Z,19.38
2023-03-05T17:52:34.836Z,19.39
2023-03-05T17:53:34.834Z,19.42
2023-03-05T17:54:34.840Z,19.37
2023-03-05T17:55:34.849Z,19.38
2023-03-05T17:56:34.861Z,19.40
2023-03-05T17:57:34.851Z,19.38
2023-03-05T17:58:34.882Z,19.36
2023-03-05T17:59:34.870Z,19.37
2023-03-05T18:00:34.911Z,19.37
2023-03-05T18:01:34.978Z,19.39
2023-03-05T18:02:34.920Z,19.40
2023-03-05T18:03:34.936Z,19.41
2023-03-05T18:04:34.962Z,19.41
2023-03-05T18:05:34.942Z,19.40
2023-03-05T18:06:34.970Z,19.37
2023-03-05T18:07:34.997Z,19.38
2023-03-05T18:08:35.071Z,19.40
2023-03-05T18:09:35.040Z,19.39
2023-03-05T18:10:35.086Z,19.39
2023-03-05T18:11:35.093Z,19.41
2023-03-05T18:12:35.126Z,19.38
2023-03-05T18:13:35.200Z,19.37
2023-03-05T18:14:35.206Z,19.37
2023-03-05T18:15:35.216Z,19.37
2023-03-05T18:16:35.299Z,19.35
2023-03-05T18:17:35.260Z,19.36
2023-03-05T18:18:35.307Z,19.36
2023-03-05T18:19:35.397Z,19.34
2023-03-05T18:20:35.414Z,19.34
2023-03-05T18:21:35.455Z,19.35
2023-03-05T18:22:35.502Z,19.37
2023-03-05T18:23:35.552Z,19.35
2023-03-05T18:24:35.581Z,19.36
2023-03-05T18:25:35.646Z,19.36
2023-03-05T18:26:35.641Z,19.34
2023-03-05T18:27:35.720Z,19.33
2023-03-05T18:28:35.720Z,19.33
2023-03-05T18:29:35.796Z,19.34
2023-03-05T18:30:35.851Z,19.32
2023-03-05T18:31:35.865Z,19.33
2023-03-05T18:32:36.005Z,19.33
2023-03-05T18:33:36.015Z,19.33
2023-03-05T18:34:36.071Z,19.32
2023-03-05T18:35:36.118Z,19.32
2023-03-05T18:36:36.185Z,19.30
2023-03-05T18:37:36.241Z,19.32
2023-03-05T18:38:36.292Z,19.34
2023-03-05T18:39:36.327Z,19.34
2023-03-05T18:40:36.404Z,19.35
2023-03-05T18:41:36.468Z,19.34
2023-03-05T18:42:36.562Z,19.34
2023-03-05T18:43:36.639Z,19.32
2023-03-05T18:44:36.681Z,19.36
2023-03-05T18:45:36.731Z,19.38